createdAt,value
2022-08-05T00:03:21.474Z,24.00
2022-08-05T00:09:24.145Z,23.90
2022-08-05T00:15:55.069Z,23.90
2022-08-05T00:21:48.584Z,23.90
2022-08-05T00:27:50.699Z,23.90
2022-08-05T00:34:55.494Z,24.00
2022-08-05T00:40:17.953Z,24.00
2022-08-05T00:46:42.601Z,24.10
2022-08-05T00:52:46.828Z,24.10
2022-08-05T00:58:49.203Z,23.90
2022-08-05T01:04:51.490Z,23.90
2022-08-05T01:11:33.394Z,23.90
2022-08-05T01:17:43.978Z,23.90
2022-08-05T01:23:53.067Z,23.90
2022-08-05T01:30:01.824Z,24.00
2022-08-05T01:36:12.850Z,24.10
2022-08-05T01:42:24.742Z,24.10
2022-08-05T01:48:32.459Z,24.10
2022-08-05T01:54:53.331Z,24.20
2022-08-05T02:00:59.023Z,24.20
2022-08-05T02:07:03.527Z,24.30
2022-08-05T02:13:16.471Z,24.30
2022-08-05T02:19:35.159Z,24.20
2022-08-05T02:25:50.099Z,24.10
2022-08-05T02:31:54.699Z,23.90
2022-08-05T02:38:00.323Z,23.80
2022-08-05T02:44:11.922Z,23.60
2022-08-05T02:50:18.175Z,23.50
2022-08-05T02:56:21.062Z,23.40
2022-08-05T03:02:29.989Z,23.30
2022-08-05T03:08:33.001Z,23.20
2022-08-05T03:14:45.790Z,23.20
2022-08-05T03:20:49.085Z,23.10
2022-08-05T03:26:52.835Z,23.10
2022-08-05T03:32:55.178Z,23.10
2022-08-05T03:38:57.522Z,23.10
2022-08-05T03:44:59.724Z,23.20
2022-08-05T03:52:37.709Z,23.20
2022-08-05T03:57:45.861Z,23.30
2022-08-05T04:04:08.853Z,23.40
2022-08-05T04:10:12.771Z,23.60
2022-08-05T04:16:25.048Z,23.70
2022-08-05T04:22:27.885Z,23.90
2022-08-05T04:28:30.830Z,24.20
2022-08-05T04:34:35.313Z,24.40
2022-08-05T04:40:43.735Z,24.70
2022-08-05T04:46:52.867Z,25.00
2022-08-05T04:52:55.249Z,25.20
2022-08-05T04:58:58.942Z,25.50
2022-08-05T05:05:02.358Z,25.90
2022-08-05T05:11:05.910Z,26.20
2022-08-05T05:17:19.863Z,26.50
2022-08-05T05:23:26.111Z,26.90
2022-08-05T05:30:03.646Z,27.20
2022-08-05T05:35:50.877Z,27.50
2022-08-05T05:41:54.620Z,27.80
2022-08-05T05:48:06.555Z,28.40
2022-08-05T05:54:11.618Z,28.90
2022-08-05T06:00:19.086Z,33.90
2022-08-05T06:06:22.361Z,36.60
2022-08-05T06:12:27.250Z,38.10
2022-08-05T06:18:31.841Z,39.60
2022-08-05T06:24:48.283Z,40.80
2022-08-05T06:30:51.359Z,40.60
2022-08-05T06:36:58.115Z,41.20
2022-08-05T06:43:01.217Z,40.80
2022-08-05T06:49:03.626Z,41.70
2022-08-05T06:55:10.093Z,42.40
2022-08-05T07:01:13.298Z,41.10
2022-08-05T07:07:15.798Z,40.20
2022-08-05T07:13:58.716Z,41.30
2022-08-05T07:20:32.272Z,42.20
2022-08-05T07:26:25.730Z,43.00
2022-08-05T07:32:28.655Z,43.30
2022-08-05T07:38:33.335Z,42.80
2022-08-05T07:44:36.891Z,43.60
2022-08-05T07:50:41.793Z,42.50
2022-08-05T07:57:02.477Z,42.30
2022-08-05T08:03:14.309Z,42.80
2022-08-05T08:09:19.680Z,43.70
2022-08-05T08:15:37.353Z,42.80
2022-08-05T08:21:47.961Z,43.00
2022-08-05T08:27:51.289Z,42.80
2022-08-05T08:33:54.081Z,42.50
2022-08-05T08:39:56.597Z,42.80
2022-08-05T08:46:00.336Z,43.50
2022-08-05T08:52:13.634Z,43.60
2022-08-05T08:58:17.666Z,43.40
2022-08-05T09:04:19.882Z,44.30
2022-08-05T09:10:27.773Z,43.90
2022-08-05T09:16:32.035Z,41.50
2022-08-05T09:23:05.440Z,41.70
2022-08-05T09:29:09.995Z,42.60
2022-08-05T09:35:26.722Z,42.80
2022-08-05T09:41:33.168Z,43.60
2022-08-05T09:47:55.827Z,41.90
2022-08-05T09:53:58.984Z,42.80
2022-08-05T10:00:10.674Z,42.10
2022-08-05T10:06:15.447Z,42.20
2022-08-05T10:12:33.356Z,42.10
2022-08-05T10:18:37.400Z,39.70
2022-08-05T10:24:40.403Z,40.80
2022-08-05T10:32:48.283Z,41.10
2022-08-05T10:37:05.415Z,39.60
2022-08-05T10:43:15.987Z,36.80
2022-08-05T10:49:27.198Z,36.10
2022-08-05T10:56:03.566Z,37.80
2022-08-05T11:02:34.503Z,39.50
2022-08-05T11:08:37.120Z,38.90
2022-08-05T11:15:11.962Z,39.60
2022-08-05T11:21:11.349Z,40.00
2022-08-05T11:27:51.237Z,38.50
2022-08-05T11:33:52.545Z,37.80
2022-08-05T11:40:02.643Z,38.50
2022-08-05T11:46:27.290Z,38.40
2022-08-05T11:52:29.939Z,38.80
2022-08-05T11:58:41.165Z,38.90
2022-08-05T12:04:59.560Z,38.10
2022-08-05T12:11:06.127Z,36.40
2022-08-05T12:18:00.565Z,37.70
2022-08-05T12:23:42.975Z,40.00
2022-08-05T12:29:45.690Z,40.90
2022-08-05T12:36:01.257Z,41.40
2022-08-05T12:42:03.816Z,41.60
2022-08-05T12:48:17.157Z,36.40
2022-08-05T12:54:32.574Z,40.50
2022-08-05T13:02:00.556Z,41.50
2022-08-05T13:07:10.445Z,41.00
2022-08-05T13:14:06.266Z,39.20
2022-08-05T13:20:05.639Z,38.50
2022-08-05T13:26:07.981Z,37.80
2022-08-05T13:32:13.718Z,36.70
2022-08-05T13:38:30.784Z,36.80
2022-08-05T13:44:36.750Z,36.90
2022-08-05T13:50:38.948Z,36.20
2022-08-05T13:56:50.889Z,36.10
2022-08-05T14:02:53.949Z,35.50
2022-08-05T14:08:56.569Z,35.10
2022-08-05T14:16:04.402Z,34.70
2022-08-05T14:22:10.322Z,34.70
2022-08-05T14:27:48.892Z,34.70
2022-08-05T14:33:59.592Z,34.80
2022-08-05T14:40:03.329Z,34.60
2022-08-05T14:46:06.685Z,34.50
2022-08-05T14:52:10.169Z,34.30
2022-08-05T14:58:14.622Z,34.20
2022-08-05T15:04:20.465Z,34.00
2022-08-05T15:10:28.611Z,33.80
2022-08-05T15:16:31.950Z,33.60
2022-08-05T15:22:34.139Z,33.40
2022-08-05T15:28:36.642Z,33.30
2022-08-05T15:34:45.932Z,33.20
2022-08-05T15:41:20.792Z,33.00
2022-08-05T15:47:10.541Z,32.80
2022-08-05T15:53:14.440Z,32.70
2022-08-05T15:59:22.031Z,32.70
2022-08-05T16:05:28.442Z,32.60
2022-08-05T16:11:40.000Z,32.50
2022-08-05T16:17:49.700Z,32.50
2022-08-05T16:24:03.305Z,32.30
2022-08-05T16:30:06.644Z,32.30
2022-08-05T16:36:09.086Z,32.10
2022-08-05T16:42:15.105Z,32.00
2022-08-05T16:48:25.397Z,31.90
2022-08-05T16:54:32.932Z,31.70
2022-08-05T17:00:37.698Z,31.50
2022-08-05T17:06:41.899Z,31.40
2022-08-05T17:12:51.802Z,31.30
2022-08-05T17:18:54.742Z,31.10
2022-08-05T17:24:58.794Z,31.00
2022-08-05T17:31:08.399Z,30.80
2022-08-05T17:37:39.779Z,30.60
2022-08-05T17:43:47.295Z,30.40
2022-08-05T17:50:04.090Z,30.30
2022-08-05T17:56:12.667Z,30.20
2022-08-05T18:02:20.142Z,30.10
2022-08-05T18:08:25.533Z,29.90
2022-08-05T18:14:27.823Z,29.80
2022-08-05T18:20:32.388Z,29.70
2022-08-05T18:26:34.783Z,29.60
2022-08-05T18:32:37.329Z,29.50
2022-08-05T18:38:41.969Z,29.40
2022-08-05T18:44:51.737Z,29.40
2022-08-05T18:52:04.500Z,29.30
2022-08-05T18:57:50.119Z,29.20
2022-08-05T19:03:56.706Z,29.10
2022-08-05T19:10:01.389Z,29.00
2022-08-05T19:16:04.483Z,28.80
2022-08-05T19:22:07.065Z,28.60
2022-08-05T19:28:10.916Z,28.60
2022-08-05T19:34:13.416Z,28.60
2022-08-05T19:40:24.316Z,28.70
2022-08-05T19:46:30.198Z,28.70
2022-08-05T19:52:33.141Z,28.70
2022-08-05T19:58:38.452Z,28.70
2022-08-05T20:04:59.210Z,28.80
2022-08-05T20:11:01.917Z,28.80
2022-08-05T20:17:06.876Z,28.80
2022-08-05T20:23:10.127Z,28.70
2022-08-05T20:29:26.588Z,28.60
2022-08-05T20:35:29.911Z,28.60
2022-08-05T20:41:43.266Z,28.60
2022-08-05T20:47:47.000Z,28.60
2022-08-05T20:53:56.442Z,28.60
2022-08-05T21:00:20.107Z,28.50
2022-08-05T21:06:27.712Z,28.40
2022-08-05T21:12:31.017Z,28.30
2022-08-05T21:18:35.821Z,28.30
2022-08-05T21:24:38.208Z,28.20
2022-08-05T21:30:42.049Z,28.20
2022-08-05T21:36:48.965Z,28.20
2022-08-05T21:42:53.914Z,28.10
2022-08-05T21:48:56.953Z,28.10
2022-08-05T21:55:06.444Z,28.10
2022-08-05T22:01:10.705Z,28.00
2022-08-05T22:07:13.242Z,27.90
2022-08-05T22:14:19.680Z,27.80
2022-08-05T22:20:00.332Z,27.60
2022-08-05T22:26:18.755Z,27.50
2022-08-05T22:32:23.160Z,27.20
2022-08-05T22:38:26.449Z,27.10
2022-08-05T22:44:29.389Z,27.00
2022-08-05T22:50:31.636Z,26.90
2022-08-05T22:56:33.979Z,26.80
2022-08-05T23:02:46.389Z,26.60
2022-08-05T23:08:50.328Z,26.60
2022-08-05T23:14:54.615Z,26.50
2022-08-05T23:20:58.436Z,26.40
2022-08-05T23:27:00.693Z,26.40
2022-08-05T23:33:02.970Z,26.40
2022-08-05T23:39:05.191Z,26.30
2022-08-05T23:45:14.153Z,26.20
2022-08-05T23:51:17.955Z,26.10
2022-08-05T23:57:20.847Z,26.00
